Terminal Aerodrome Forecast
Issued by NWS Twin Cities, MN

Home | Current Version | Previous Version | Text Only | Print | Product List | Glossary Off
Versions: 1 2 3 4 5 6 7 8 9 10 11 12

930
FTUS43 KMPX 191129
TAFEAU
TAF
KEAU 191129Z 1912/2012 00000KT P6SM SKC
     FM191600 20008KT P6SM SKC
     FM200000 17006KT P6SM SKC=

USA.gov is the U.S. government's official web portal to all federal, state and local government web resources and services.